sensor_id;sensor_type;location;lat;lon;timestamp;P1;durP1;ratioP1;P2;durP2;ratioP2
3299;SDS011;1662;49.310;8.134;2024-01-30T00:02:13;8.40;;;7.60;;
3299;SDS011;1662;49.310;8.134;2024-01-30T00:04:39;6.77;;;6.03;;
3299;SDS011;1662;49.310;8.134;2024-01-30T00:07:04;8.53;;;7.30;;
3299;SDS011;1662;49.310;8.134;2024-01-30T00:09:30;7.20;;;6.50;;
3299;SDS011;1662;49.310;8.134;2024-01-30T00:11:58;10.20;;;7.13;;
3299;SDS011;1662;49.310;8.134;2024-01-30T00:14:24;8.70;;;7.57;;
3299;SDS011;1662;49.310;8.134;2024-01-30T00:16:50;7.27;;;6.53;;
3299;SDS011;1662;49.310;8.134;2024-01-30T00:19:18;8.50;;;6.93;;
3299;SDS011;1662;49.310;8.134;2024-01-30T00:21:44;7.53;;;6.83;;
3299;SDS011;1662;49.310;8.134;2024-01-30T00:24:09;7.33;;;6.17;;
3299;SDS011;1662;49.310;8.134;2024-01-30T00:26:35;6.83;;;6.13;;
3299;SDS011;1662;49.310;8.134;2024-01-30T00:29:01;7.07;;;5.77;;
3299;SDS011;1662;49.310;8.134;2024-01-30T00:31:27;7.73;;;6.30;;
3299;SDS011;1662;49.310;8.134;2024-01-30T00:33:53;8.40;;;7.00;;
3299;SDS011;1662;49.310;8.134;2024-01-30T00:36:18;6.40;;;5.80;;
3299;SDS011;1662;49.310;8.134;2024-01-30T00:38:44;6.40;;;5.80;;
3299;SDS011;1662;49.310;8.134;2024-01-30T00:41:09;8.90;;;7.20;;
3299;SDS011;1662;49.310;8.134;2024-01-30T00:43:35;8.00;;;7.00;;
3299;SDS011;1662;49.310;8.134;2024-01-30T00:46:01;8.65;;;7.63;;
3299;SDS011;1662;49.310;8.134;2024-01-30T00:48:27;7.43;;;6.27;;
3299;SDS011;1662;49.310;8.134;2024-01-30T00:50:52;8.23;;;6.30;;
3299;SDS011;1662;49.310;8.134;2024-01-30T00:53:21;7.03;;;5.88;;
3299;SDS011;1662;49.310;8.134;2024-01-30T00:55:46;8.53;;;5.40;;
3299;SDS011;1662;49.310;8.134;2024-01-30T00:58:12;6.40;;;5.80;;
3299;SDS011;1662;49.310;8.134;2024-01-30T01:00:38;8.00;;;6.00;;
3299;SDS011;1662;49.310;8.134;2024-01-30T01:03:04;6.17;;;5.57;;
3299;SDS011;1662;49.310;8.134;2024-01-30T01:05:30;10.67;;;6.03;;
3299;SDS011;1662;49.310;8.134;2024-01-30T01:07:55;9.57;;;5.90;;
3299;SDS011;1662;49.310;8.134;2024-01-30T01:10:21;6.10;;;5.47;;
3299;SDS011;1662;49.310;8.134;2024-01-30T01:12:47;5.85;;;5.35;;
3299;SDS011;1662;49.310;8.134;2024-01-30T01:15:13;7.33;;;6.00;;
3299;SDS011;1662;49.310;8.134;2024-01-30T01:17:39;7.70;;;6.30;;
3299;SDS011;1662;49.310;8.134;2024-01-30T01:20:05;7.97;;;6.57;;
3299;SDS011;1662;49.310;8.134;2024-01-30T01:22:32;8.80;;;7.70;;
3299;SDS011;1662;49.310;8.134;2024-01-30T01:24:59;9.27;;;7.40;;
3299;SDS011;1662;49.310;8.134;2024-01-30T01:27:25;7.97;;;7.10;;
3299;SDS011;1662;49.310;8.134;2024-01-30T01:29:51;10.57;;;8.57;;
3299;SDS011;1662;49.310;8.134;2024-01-30T01:32:17;15.57;;;11.50;;
3299;SDS011;1662;49.310;8.134;2024-01-30T01:34:43;14.70;;;13.10;;
3299;SDS011;1662;49.310;8.134;2024-01-30T01:37:08;12.10;;;9.77;;
3299;SDS011;1662;49.310;8.134;2024-01-30T01:39:34;11.30;;;10.13;;
3299;SDS011;1662;49.310;8.134;2024-01-30T01:42:02;13.50;;;11.75;;
3299;SDS011;1662;49.310;8.134;2024-01-30T01:44:28;17.40;;;11.73;;
3299;SDS011;1662;49.310;8.134;2024-01-30T01:46:54;11.40;;;10.20;;
3299;SDS011;1662;49.310;8.134;2024-01-30T01:49:20;15.35;;;12.20;;
3299;SDS011;1662;49.310;8.134;2024-01-30T01:51:46;13.55;;;12.15;;
3299;SDS011;1662;49.310;8.134;2024-01-30T01:54:13;12.70;;;11.50;;
3299;SDS011;1662;49.310;8.134;2024-01-30T01:56:40;16.58;;;10.95;;
3299;SDS011;1662;49.310;8.134;2024-01-30T01:59:08;13.82;;;11.45;;
3299;SDS011;1662;49.310;8.134;2024-01-30T02:01:35;11.73;;;10.53;;
3299;SDS011;1662;49.310;8.134;2024-01-30T02:04:02;15.85;;;11.45;;
3299;SDS011;1662;49.310;8.134;2024-01-30T02:06:27;12.23;;;10.37;;
3299;SDS011;1662;49.310;8.134;2024-01-30T02:08:54;11.70;;;10.50;;
3299;SDS011;1662;49.310;8.134;2024-01-30T02:11:19;11.95;;;10.65;;
3299;SDS011;1662;49.310;8.134;2024-01-30T02:13:45;17.47;;;12.03;;
3299;SDS011;1662;49.310;8.134;2024-01-30T02:16:11;15.70;;;12.23;;
3299;SDS011;1662;49.310;8.134;2024-01-30T02:18:37;16.87;;;12.13;;
3299;SDS011;1662;49.310;8.134;2024-01-30T02:21:07;16.48;;;13.05;;
3299;SDS011;1662;49.310;8.134;2024-01-30T02:23:32;14.85;;;13.05;;
3299;SDS011;1662;49.310;8.134;2024-01-30T02:25:59;15.25;;;12.82;;
3299;SDS011;1662;49.310;8.134;2024-01-30T02:28:25;17.33;;;12.80;;
3299;SDS011;1662;49.310;8.134;2024-01-30T02:30:52;15.30;;;13.00;;
3299;SDS011;1662;49.310;8.134;2024-01-30T02:33:17;17.17;;;13.23;;
3299;SDS011;1662;49.310;8.134;2024-01-30T02:35:43;17.37;;;14.20;;
3299;SDS011;1662;49.310;8.134;2024-01-30T02:38:09;17.93;;;14.93;;
3299;SDS011;1662;49.310;8.134;2024-01-30T02:40:34;24.43;;;16.40;;
3299;SDS011;1662;49.310;8.134;2024-01-30T02:43:01;22.27;;;15.70;;
3299;SDS011;1662;49.310;8.134;2024-01-30T02:45:29;17.55;;;14.63;;
3299;SDS011;1662;49.310;8.134;2024-01-30T02:47:54;19.08;;;16.05;;
3299;SDS011;1662;49.310;8.134;2024-01-30T02:50:20;16.00;;;14.23;;
3299;SDS011;1662;49.310;8.134;2024-01-30T02:52:46;18.03;;;15.47;;
3299;SDS011;1662;49.310;8.134;2024-01-30T02:55:11;21.00;;;16.77;;
3299;SDS011;1662;49.310;8.134;2024-01-30T02:57:37;20.33;;;16.10;;
3299;SDS011;1662;49.310;8.134;2024-01-30T03:00:04;19.15;;;15.82;;
3299;SDS011;1662;49.310;8.134;2024-01-30T03:02:31;17.45;;;14.68;;
3299;SDS011;1662;49.310;8.134;2024-01-30T03:04:57;20.55;;;15.80;;
3299;SDS011;1662;49.310;8.134;2024-01-30T03:07:23;26.20;;;16.77;;
3299;SDS011;1662;49.310;8.134;2024-01-30T03:09:49;22.90;;;16.73;;
3299;SDS011;1662;49.310;8.134;2024-01-30T03:12:14;26.40;;;17.17;;
3299;SDS011;1662;49.310;8.134;2024-01-30T03:14:40;23.10;;;16.27;;
3299;SDS011;1662;49.310;8.134;2024-01-30T03:17:06;19.03;;;16.37;;
3299;SDS011;1662;49.310;8.134;2024-01-30T03:19:31;23.00;;;18.37;;
3299;SDS011;1662;49.310;8.134;2024-01-30T03:21:57;20.90;;;16.93;;
3299;SDS011;1662;49.310;8.134;2024-01-30T03:24:23;21.17;;;18.87;;
3299;SDS011;1662;49.310;8.134;2024-01-30T03:26:48;23.27;;;18.20;;
3299;SDS011;1662;49.310;8.134;2024-01-30T03:29:14;18.37;;;16.40;;
3299;SDS011;1662;49.310;8.134;2024-01-30T03:31:40;21.80;;;18.17;;
3299;SDS011;1662;49.310;8.134;2024-01-30T03:34:06;20.73;;;18.10;;
3299;SDS011;1662;49.310;8.134;2024-01-30T03:36:31;20.27;;;18.17;;
3299;SDS011;1662;49.310;8.134;2024-01-30T03:38:59;24.70;;;18.45;;
3299;SDS011;1662;49.310;8.134;2024-01-30T03:41:25;25.30;;;19.83;;
3299;SDS011;1662;49.310;8.134;2024-01-30T03:43:50;22.93;;;18.30;;
3299;SDS011;1662;49.310;8.134;2024-01-30T03:46:16;18.80;;;16.73;;
3299;SDS011;1662;49.310;8.134;2024-01-30T03:48:42;24.33;;;18.30;;
3299;SDS011;1662;49.310;8.134;2024-01-30T03:51:07;24.17;;;18.03;;
3299;SDS011;1662;49.310;8.134;2024-01-30T03:53:34;21.65;;;18.02;;
3299;SDS011;1662;49.310;8.134;2024-01-30T03:56:00;20.77;;;18.45;;
3299;SDS011;1662;49.310;8.134;2024-01-30T03:58:26;23.33;;;18.27;;
3299;SDS011;1662;49.310;8.134;2024-01-30T04:00:51;21.57;;;17.27;;
3299;SDS011;1662;49.310;8.134;2024-01-30T04:03:17;21.60;;;17.03;;
3299;SDS011;1662;49.310;8.134;2024-01-30T04:05:42;19.90;;;16.97;;
3299;SDS011;1662;49.310;8.134;2024-01-30T04:08:08;20.10;;;16.73;;
3299;SDS011;1662;49.310;8.134;2024-01-30T04:10:34;22.63;;;16.70;;
3299;SDS011;1662;49.310;8.134;2024-01-30T04:13:00;19.87;;;17.37;;
3299;SDS011;1662;49.310;8.134;2024-01-30T04:15:26;21.13;;;17.77;;
3299;SDS011;1662;49.310;8.134;2024-01-30T04:17:52;23.50;;;17.77;;
3299;SDS011;1662;49.310;8.134;2024-01-30T04:20:20;23.30;;;18.17;;
3299;SDS011;1662;49.310;8.134;2024-01-30T04:22:46;20.53;;;17.83;;
3299;SDS011;1662;49.310;8.134;2024-01-30T04:25:12;20.13;;;17.37;;
3299;SDS011;1662;49.310;8.134;2024-01-30T04:27:38;24.33;;;18.60;;
3299;SDS011;1662;49.310;8.134;2024-01-30T04:30:04;19.07;;;16.60;;
3299;SDS011;1662;49.310;8.134;2024-01-30T04:32:31;23.15;;;18.13;;
3299;SDS011;1662;49.310;8.134;2024-01-30T04:34:57;20.50;;;18.23;;
3299;SDS011;1662;49.310;8.134;2024-01-30T04:37:23;21.20;;;17.30;;
3299;SDS011;1662;49.310;8.134;2024-01-30T04:39:49;21.13;;;17.60;;
3299;SDS011;1662;49.310;8.134;2024-01-30T04:42:14;22.57;;;17.53;;
3299;SDS011;1662;49.310;8.134;2024-01-30T04:44:40;22.97;;;17.17;;
3299;SDS011;1662;49.310;8.134;2024-01-30T04:47:05;20.77;;;17.00;;
3299;SDS011;1662;49.310;8.134;2024-01-30T04:49:33;19.05;;;16.48;;
3299;SDS011;1662;49.310;8.134;2024-01-30T04:51:59;18.47;;;15.57;;
3299;SDS011;1662;49.310;8.134;2024-01-30T04:54:25;20.00;;;16.27;;
3299;SDS011;1662;49.310;8.134;2024-01-30T04:56:50;19.13;;;15.20;;
3299;SDS011;1662;49.310;8.134;2024-01-30T04:59:18;22.08;;;16.30;;
3299;SDS011;1662;49.310;8.134;2024-01-30T05:01:44;20.30;;;15.87;;
3299;SDS011;1662;49.310;8.134;2024-01-30T05:04:10;25.17;;;15.73;;
3299;SDS011;1662;49.310;8.134;2024-01-30T05:06:36;17.20;;;15.48;;
3299;SDS011;1662;49.310;8.134;2024-01-30T05:09:02;18.97;;;15.00;;
3299;SDS011;1662;49.310;8.134;2024-01-30T05:11:29;18.67;;;14.05;;
3299;SDS011;1662;49.310;8.134;2024-01-30T05:13:55;19.13;;;16.50;;
3299;SDS011;1662;49.310;8.134;2024-01-30T05:16:20;22.27;;;15.37;;
3299;SDS011;1662;49.310;8.134;2024-01-30T05:18:46;18.47;;;15.17;;
3299;SDS011;1662;49.310;8.134;2024-01-30T05:21:11;20.57;;;15.90;;
3299;SDS011;1662;49.310;8.134;2024-01-30T05:23:37;18.80;;;14.73;;
3299;SDS011;1662;49.310;8.134;2024-01-30T05:26:03;16.53;;;14.77;;
3299;SDS011;1662;49.310;8.134;2024-01-30T05:28:29;17.47;;;14.33;;
3299;SDS011;1662;49.310;8.134;2024-01-30T05:30:55;21.77;;;15.52;;
3299;SDS011;1662;49.310;8.134;2024-01-30T05:33:21;18.33;;;16.40;;
3299;SDS011;1662;49.310;8.134;2024-01-30T05:35:47;20.77;;;15.90;;
3299;SDS011;1662;49.310;8.134;2024-01-30T05:38:13;20.30;;;15.77;;
3299;SDS011;1662;49.310;8.134;2024-01-30T05:40:40;18.45;;;14.35;;
3299;SDS011;1662;49.310;8.134;2024-01-30T05:43:05;19.90;;;15.27;;
3299;SDS011;1662;49.310;8.134;2024-01-30T05:45:33;18.80;;;15.95;;
3299;SDS011;1662;49.310;8.134;2024-01-30T05:48:00;18.90;;;15.18;;
3299;SDS011;1662;49.310;8.134;2024-01-30T05:50:26;20.27;;;14.50;;
3299;SDS011;1662;49.310;8.134;2024-01-30T05:52:52;17.43;;;14.70;;
3299;SDS011;1662;49.310;8.134;2024-01-30T05:55:18;19.57;;;15.27;;
3299;SDS011;1662;49.310;8.134;2024-01-30T05:57:43;18.43;;;14.67;;
3299;SDS011;1662;49.310;8.134;2024-01-30T06:00:09;17.50;;;13.70;;
3299;SDS011;1662;49.310;8.134;2024-01-30T06:02:35;17.10;;;14.20;;
3299;SDS011;1662;49.310;8.134;2024-01-30T06:05:01;19.63;;;14.70;;
3299;SDS011;1662;49.310;8.134;2024-01-30T06:07:26;18.73;;;15.43;;
3299;SDS011;1662;49.310;8.134;2024-01-30T06:09:52;16.07;;;14.10;;
3299;SDS011;1662;49.310;8.134;2024-01-30T06:12:17;16.70;;;14.30;;
3299;SDS011;1662;49.310;8.134;2024-01-30T06:14:43;16.20;;;14.53;;
3299;SDS011;1662;49.310;8.134;2024-01-30T06:17:09;17.70;;;14.67;;
3299;SDS011;1662;49.310;8.134;2024-01-30T06:19:34;20.20;;;15.13;;
3299;SDS011;1662;49.310;8.134;2024-01-30T06:22:00;25.43;;;16.27;;
3299;SDS011;1662;49.310;8.134;2024-01-30T06:24:26;16.83;;;13.77;;
3299;SDS011;1662;49.310;8.134;2024-01-30T06:26:52;15.73;;;13.50;;
3299;SDS011;1662;49.310;8.134;2024-01-30T06:29:20;16.58;;;14.27;;
3299;SDS011;1662;49.310;8.134;2024-01-30T06:31:46;16.93;;;14.17;;
3299;SDS011;1662;49.310;8.134;2024-01-30T06:34:12;18.83;;;12.63;;
3299;SDS011;1662;49.310;8.134;2024-01-30T06:36:37;18.10;;;13.50;;
3299;SDS011;1662;49.310;8.134;2024-01-30T06:39:03;17.00;;;14.37;;
3299;SDS011;1662;49.310;8.134;2024-01-30T06:41:29;16.70;;;13.30;;
3299;SDS011;1662;49.310;8.134;2024-01-30T06:43:57;16.15;;;13.70;;
3299;SDS011;1662;49.310;8.134;2024-01-30T06:46:23;20.23;;;14.47;;
3299;SDS011;1662;49.310;8.134;2024-01-30T06:48:48;15.43;;;13.40;;
3299;SDS011;1662;49.310;8.134;2024-01-30T06:51:14;15.13;;;13.53;;
3299;SDS011;1662;49.310;8.134;2024-01-30T06:53:42;15.80;;;14.00;;
3299;SDS011;1662;49.310;8.134;2024-01-30T06:56:10;18.92;;;15.23;;
3299;SDS011;1662;49.310;8.134;2024-01-30T06:58:36;17.83;;;14.30;;
3299;SDS011;1662;49.310;8.134;2024-01-30T07:01:01;23.83;;;16.63;;
3299;SDS011;1662;49.310;8.134;2024-01-30T07:03:27;21.30;;;15.87;;
3299;SDS011;1662;49.310;8.134;2024-01-30T07:05:53;22.93;;;15.13;;
3299;SDS011;1662;49.310;8.134;2024-01-30T07:08:18;19.50;;;15.73;;
3299;SDS011;1662;49.310;8.134;2024-01-30T07:10:44;20.97;;;15.93;;
3299;SDS011;1662;49.310;8.134;2024-01-30T07:13:12;23.60;;;16.90;;
3299;SDS011;1662;49.310;8.134;2024-01-30T07:15:38;20.45;;;16.42;;
3299;SDS011;1662;49.310;8.134;2024-01-30T07:18:05;24.83;;;16.67;;
3299;SDS011;1662;49.310;8.134;2024-01-30T07:20:31;20.48;;;15.50;;
3299;SDS011;1662;49.310;8.134;2024-01-30T07:22:59;20.57;;;16.00;;
3299;SDS011;1662;49.310;8.134;2024-01-30T07:25:25;20.92;;;15.50;;
3299;SDS011;1662;49.310;8.134;2024-01-30T07:27:54;17.13;;;14.27;;
3299;SDS011;1662;49.310;8.134;2024-01-30T07:30:20;19.20;;;16.48;;
3299;SDS011;1662;49.310;8.134;2024-01-30T07:32:46;19.42;;;16.70;;
3299;SDS011;1662;49.310;8.134;2024-01-30T07:35:12;18.60;;;15.87;;
3299;SDS011;1662;49.310;8.134;2024-01-30T07:37:38;15.80;;;14.13;;
3299;SDS011;1662;49.310;8.134;2024-01-30T07:40:04;21.30;;;16.33;;
3299;SDS011;1662;49.310;8.134;2024-01-30T07:42:32;20.67;;;13.68;;
3299;SDS011;1662;49.310;8.134;2024-01-30T07:44:59;19.27;;;14.85;;
3299;SDS011;1662;49.310;8.134;2024-01-30T07:47:25;16.30;;;13.20;;
3299;SDS011;1662;49.310;8.134;2024-01-30T07:49:51;16.67;;;14.63;;
3299;SDS011;1662;49.310;8.134;2024-01-30T07:52:16;15.20;;;12.97;;
3299;SDS011;1662;49.310;8.134;2024-01-30T07:54:42;9.90;;;8.83;;
3299;SDS011;1662;49.310;8.134;2024-01-30T07:57:08;19.60;;;14.70;;
3299;SDS011;1662;49.310;8.134;2024-01-30T07:59:33;16.13;;;13.97;;
3299;SDS011;1662;49.310;8.134;2024-01-30T08:01:59;16.45;;;12.70;;
3299;SDS011;1662;49.310;8.134;2024-01-30T08:04:25;14.87;;;11.73;;
3299;SDS011;1662;49.310;8.134;2024-01-30T08:06:50;18.17;;;13.37;;
3299;SDS011;1662;49.310;8.134;2024-01-30T08:09:21;14.32;;;12.82;;
3299;SDS011;1662;49.310;8.134;2024-01-30T08:11:46;15.60;;;13.20;;
3299;SDS011;1662;49.310;8.134;2024-01-30T08:14:12;12.97;;;11.57;;
3299;SDS011;1662;49.310;8.134;2024-01-30T08:16:38;17.60;;;14.50;;
3299;SDS011;1662;49.310;8.134;2024-01-30T08:19:04;17.07;;;14.33;;
3299;SDS011;1662;49.310;8.134;2024-01-30T08:21:30;22.23;;;16.50;;
3299;SDS011;1662;49.310;8.134;2024-01-30T08:24:01;23.05;;;17.65;;
3299;SDS011;1662;49.310;8.134;2024-01-30T08:26:29;21.38;;;17.45;;
3299;SDS011;1662;49.310;8.134;2024-01-30T08:28:55;18.52;;;16.40;;
3299;SDS011;1662;49.310;8.134;2024-01-30T08:31:21;19.70;;;17.10;;
3299;SDS011;1662;49.310;8.134;2024-01-30T08:33:47;17.63;;;15.53;;
3299;SDS011;1662;49.310;8.134;2024-01-30T08:36:12;21.27;;;16.33;;
3299;SDS011;1662;49.310;8.134;2024-01-30T08:38:38;19.87;;;15.17;;
3299;SDS011;1662;49.310;8.134;2024-01-30T08:41:07;19.95;;;15.50;;
3299;SDS011;1662;49.310;8.134;2024-01-30T08:43:32;17.92;;;14.45;;
3299;SDS011;1662;49.310;8.134;2024-01-30T08:45:59;19.80;;;14.70;;
3299;SDS011;1662;49.310;8.134;2024-01-30T08:48:25;19.38;;;13.85;;
3299;SDS011;1662;49.310;8.134;2024-01-30T08:50:51;19.57;;;14.43;;
3299;SDS011;1662;49.310;8.134;2024-01-30T08:53:16;19.63;;;15.47;;
3299;SDS011;1662;49.310;8.134;2024-01-30T08:55:42;16.90;;;14.50;;
3299;SDS011;1662;49.310;8.134;2024-01-30T08:58:08;22.77;;;15.97;;
3299;SDS011;1662;49.310;8.134;2024-01-30T09:00:33;16.77;;;14.30;;
3299;SDS011;1662;49.310;8.134;2024-01-30T09:02:59;17.53;;;14.17;;
3299;SDS011;1662;49.310;8.134;2024-01-30T09:05:24;20.20;;;14.10;;
3299;SDS011;1662;49.310;8.134;2024-01-30T09:07:50;17.70;;;15.80;;
3299;SDS011;1662;49.310;8.134;2024-01-30T09:10:15;17.93;;;15.47;;
3299;SDS011;1662;49.310;8.134;2024-01-30T09:12:41;18.83;;;15.30;;
3299;SDS011;1662;49.310;8.134;2024-01-30T09:15:07;18.90;;;16.90;;
3299;SDS011;1662;49.310;8.134;2024-01-30T09:17:33;22.80;;;16.90;;
3299;SDS011;1662;49.310;8.134;2024-01-30T09:19:58;20.13;;;17.90;;
3299;SDS011;1662;49.310;8.134;2024-01-30T09:22:24;21.13;;;18.17;;
3299;SDS011;1662;49.310;8.134;2024-01-30T09:24:50;20.17;;;17.88;;
3299;SDS011;1662;49.310;8.134;2024-01-30T09:27:16;20.80;;;16.73;;
3299;SDS011;1662;49.310;8.134;2024-01-30T09:29:41;21.00;;;18.70;;
3299;SDS011;1662;49.310;8.134;2024-01-30T09:32:07;24.00;;;17.70;;
3299;SDS011;1662;49.310;8.134;2024-01-30T09:34:34;13.75;;;11.30;;
3299;SDS011;1662;49.310;8.134;2024-01-30T09:36:59;17.97;;;16.07;;
3299;SDS011;1662;49.310;8.134;2024-01-30T09:39:27;21.50;;;17.17;;
3299;SDS011;1662;49.310;8.134;2024-01-30T09:41:56;21.50;;;17.77;;
3299;SDS011;1662;49.310;8.134;2024-01-30T09:44:30;24.27;;;18.20;;
3299;SDS011;1662;49.310;8.134;2024-01-30T09:46:56;21.70;;;17.08;;
3299;SDS011;1662;49.310;8.134;2024-01-30T09:49:28;19.88;;;16.25;;
3299;SDS011;1662;49.310;8.134;2024-01-30T09:51:56;21.48;;;17.83;;
3299;SDS011;1662;49.310;8.134;2024-01-30T09:54:22;20.20;;;17.13;;
3299;SDS011;1662;49.310;8.134;2024-01-30T09:56:48;18.43;;;15.43;;
3299;SDS011;1662;49.310;8.134;2024-01-30T09:59:14;21.80;;;16.97;;
3299;SDS011;1662;49.310;8.134;2024-01-30T10:01:40;18.10;;;16.20;;
3299;SDS011;1662;49.310;8.134;2024-01-30T10:04:09;22.67;;;16.10;;
3299;SDS011;1662;49.310;8.134;2024-01-30T10:06:35;18.15;;;14.70;;
3299;SDS011;1662;49.310;8.134;2024-01-30T10:09:02;21.48;;;17.13;;
3299;SDS011;1662;49.310;8.134;2024-01-30T10:11:28;20.10;;;15.77;;
3299;SDS011;1662;49.310;8.134;2024-01-30T10:13:53;25.43;;;16.43;;
3299;SDS011;1662;49.310;8.134;2024-01-30T10:16:19;23.40;;;16.50;;
3299;SDS011;1662;49.310;8.134;2024-01-30T10:18:45;21.40;;;17.90;;
3299;SDS011;1662;49.310;8.134;2024-01-30T10:21:10;26.23;;;19.67;;
3299;SDS011;1662;49.310;8.134;2024-01-30T10:23:36;26.53;;;19.53;;
3299;SDS011;1662;49.310;8.134;2024-01-30T10:26:07;28.67;;;20.57;;
3299;SDS011;1662;49.310;8.134;2024-01-30T10:28:33;27.10;;;19.63;;
3299;SDS011;1662;49.310;8.134;2024-01-30T10:30:59;22.52;;;15.60;;
3299;SDS011;1662;49.310;8.134;2024-01-30T10:33:26;26.90;;;17.70;;
3299;SDS011;1662;49.310;8.134;2024-01-30T10:35:54;23.43;;;17.00;;
3299;SDS011;1662;49.310;8.134;2024-01-30T10:38:25;25.97;;;18.60;;
3299;SDS011;1662;49.310;8.134;2024-01-30T10:40:54;21.50;;;16.80;;
3299;SDS011;1662;49.310;8.134;2024-01-30T10:43:30;22.70;;;16.40;;
3299;SDS011;1662;49.310;8.134;2024-01-30T10:45:59;22.30;;;16.40;;
3299;SDS011;1662;49.310;8.134;2024-01-30T10:48:35;17.43;;;15.37;;
3299;SDS011;1662;49.310;8.134;2024-01-30T10:51:07;24.10;;;16.47;;
3299;SDS011;1662;49.310;8.134;2024-01-30T10:53:34;22.73;;;17.77;;
3299;SDS011;1662;49.310;8.134;2024-01-30T10:56:01;18.23;;;14.63;;
3299;SDS011;1662;49.310;8.134;2024-01-30T10:58:27;21.03;;;15.27;;
3299;SDS011;1662;49.310;8.134;2024-01-30T11:00:55;20.07;;;16.07;;
3299;SDS011;1662;49.310;8.134;2024-01-30T11:03:21;19.43;;;14.17;;
3299;SDS011;1662;49.310;8.134;2024-01-30T11:05:51;20.70;;;14.83;;
3299;SDS011;1662;49.310;8.134;2024-01-30T11:08:26;19.10;;;15.37;;
3299;SDS011;1662;49.310;8.134;2024-01-30T11:10:56;16.83;;;14.90;;
3299;SDS011;1662;49.310;8.134;2024-01-30T11:13:26;17.40;;;14.03;;
3299;SDS011;1662;49.310;8.134;2024-01-30T11:15:53;19.27;;;15.70;;
3299;SDS011;1662;49.310;8.134;2024-01-30T11:18:25;17.80;;;15.00;;
3299;SDS011;1662;49.310;8.134;2024-01-30T11:20:51;16.90;;;14.83;;
3299;SDS011;1662;49.310;8.134;2024-01-30T11:23:16;16.83;;;13.33;;
3299;SDS011;1662;49.310;8.134;2024-01-30T11:25:43;17.57;;;14.30;;
3299;SDS011;1662;49.310;8.134;2024-01-30T11:28:13;18.70;;;15.00;;
3299;SDS011;1662;49.310;8.134;2024-01-30T11:30:45;17.10;;;14.30;;
3299;SDS011;1662;49.310;8.134;2024-01-30T11:33:13;19.63;;;13.83;;
3299;SDS011;1662;49.310;8.134;2024-01-30T11:35:42;20.33;;;14.97;;
3299;SDS011;1662;49.310;8.134;2024-01-30T11:38:13;15.13;;;12.40;;
3299;SDS011;1662;49.310;8.134;2024-01-30T11:40:39;16.23;;;12.73;;
3299;SDS011;1662;49.310;8.134;2024-01-30T11:43:06;16.07;;;12.50;;
3299;SDS011;1662;49.310;8.134;2024-01-30T11:45:33;16.37;;;13.67;;
3299;SDS011;1662;49.310;8.134;2024-01-30T11:48:00;17.37;;;13.70;;
3299;SDS011;1662;49.310;8.134;2024-01-30T11:50:28;13.83;;;12.33;;
3299;SDS011;1662;49.310;8.134;2024-01-30T11:52:54;17.47;;;12.83;;
3299;SDS011;1662;49.310;8.134;2024-01-30T11:55:20;18.80;;;13.17;;
3299;SDS011;1662;49.310;8.134;2024-01-30T11:57:46;12.77;;;11.43;;
3299;SDS011;1662;49.310;8.134;2024-01-30T12:00:15;13.40;;;11.33;;
3299;SDS011;1662;49.310;8.134;2024-01-30T12:02:42;13.10;;;11.50;;
3299;SDS011;1662;49.310;8.134;2024-01-30T12:05:08;13.37;;;12.07;;
3299;SDS011;1662;49.310;8.134;2024-01-30T12:07:36;15.73;;;11.90;;
3299;SDS011;1662;49.310;8.134;2024-01-30T12:10:02;13.50;;;11.00;;
3299;SDS011;1662;49.310;8.134;2024-01-30T12:12:30;13.60;;;10.87;;
3299;SDS011;1662;49.310;8.134;2024-01-30T12:14:56;12.70;;;11.00;;
3299;SDS011;1662;49.310;8.134;2024-01-30T12:17:32;10.27;;;8.90;;
3299;SDS011;1662;49.310;8.134;2024-01-30T12:20:12;10.33;;;9.27;;
3299;SDS011;1662;49.310;8.134;2024-01-30T12:22:47;10.73;;;9.30;;
3299;SDS011;1662;49.310;8.134;2024-01-30T12:25:17;10.50;;;8.77;;
3299;SDS011;1662;49.310;8.134;2024-01-30T12:27:46;8.93;;;8.00;;
3299;SDS011;1662;49.310;8.134;2024-01-30T12:30:15;9.83;;;8.77;;
3299;SDS011;1662;49.310;8.134;2024-01-30T12:32:42;9.77;;;8.77;;
3299;SDS011;1662;49.310;8.134;2024-01-30T12:35:18;10.73;;;9.47;;
3299;SDS011;1662;49.310;8.134;2024-01-30T12:37:45;11.60;;;8.97;;
3299;SDS011;1662;49.310;8.134;2024-01-30T12:40:12;10.20;;;9.10;;
3299;SDS011;1662;49.310;8.134;2024-01-30T12:42:39;9.40;;;8.13;;
3299;SDS011;1662;49.310;8.134;2024-01-30T12:45:07;9.70;;;8.70;;
3299;SDS011;1662;49.310;8.134;2024-01-30T12:47:33;12.67;;;8.73;;
3299;SDS011;1662;49.310;8.134;2024-01-30T12:49:58;10.47;;;8.90;;
3299;SDS011;1662;49.310;8.134;2024-01-30T12:52:24;10.80;;;9.20;;
3299;SDS011;1662;49.310;8.134;2024-01-30T12:54:50;12.57;;;10.37;;
3299;SDS011;1662;49.310;8.134;2024-01-30T12:57:16;10.27;;;9.37;;
3299;SDS011;1662;49.310;8.134;2024-01-30T12:59:42;13.17;;;9.30;;
3299;SDS011;1662;49.310;8.134;2024-01-30T13:02:09;11.57;;;9.93;;
3299;SDS011;1662;49.310;8.134;2024-01-30T13:04:35;10.80;;;9.80;;
3299;SDS011;1662;49.310;8.134;2024-01-30T13:07:01;12.80;;;9.80;;
3299;SDS011;1662;49.310;8.134;2024-01-30T13:09:29;11.30;;;10.07;;
3299;SDS011;1662;49.310;8.134;2024-01-30T13:11:55;12.27;;;9.57;;
3299;SDS011;1662;49.310;8.134;2024-01-30T13:14:20;12.77;;;10.10;;
3299;SDS011;1662;49.310;8.134;2024-01-30T13:16:46;11.00;;;9.47;;
3299;SDS011;1662;49.310;8.134;2024-01-30T13:19:11;10.90;;;9.80;;
3299;SDS011;1662;49.310;8.134;2024-01-30T13:21:37;11.33;;;8.57;;
3299;SDS011;1662;49.310;8.134;2024-01-30T13:24:03;11.83;;;9.67;;
3299;SDS011;1662;49.310;8.134;2024-01-30T13:26:29;9.53;;;8.57;;
3299;SDS011;1662;49.310;8.134;2024-01-30T13:28:56;13.38;;;9.80;;
3299;SDS011;1662;49.310;8.134;2024-01-30T13:31:21;12.00;;;8.07;;
3299;SDS011;1662;49.310;8.134;2024-01-30T13:33:47;10.20;;;9.17;;
3299;SDS011;1662;49.310;8.134;2024-01-30T13:36:14;11.63;;;10.00;;
3299;SDS011;1662;49.310;8.134;2024-01-30T13:38:42;15.57;;;10.18;;
3299;SDS011;1662;49.310;8.134;2024-01-30T13:41:09;10.17;;;9.13;;
3299;SDS011;1662;49.310;8.134;2024-01-30T13:43:35;8.60;;;7.80;;
3299;SDS011;1662;49.310;8.134;2024-01-30T13:46:01;8.60;;;7.83;;
3299;SDS011;1662;49.310;8.134;2024-01-30T13:48:27;10.33;;;8.20;;
3299;SDS011;1662;49.310;8.134;2024-01-30T13:50:53;14.40;;;8.40;;
3299;SDS011;1662;49.310;8.134;2024-01-30T13:53:19;11.75;;;7.95;;
3299;SDS011;1662;49.310;8.134;2024-01-30T13:55:45;7.83;;;6.90;;
3299;SDS011;1662;49.310;8.134;2024-01-30T13:58:10;6.27;;;5.67;;
3299;SDS011;1662;49.310;8.134;2024-01-30T14:00:36;6.37;;;5.73;;
3299;SDS011;1662;49.310;8.134;2024-01-30T14:03:02;6.23;;;5.63;;
3299;SDS011;1662;49.310;8.134;2024-01-30T14:05:28;6.17;;;5.50;;
3299;SDS011;1662;49.310;8.134;2024-01-30T14:07:54;6.83;;;6.23;;
3299;SDS011;1662;49.310;8.134;2024-01-30T14:10:20;7.22;;;6.13;;
3299;SDS011;1662;49.310;8.134;2024-01-30T14:12:46;6.70;;;6.10;;
3299;SDS011;1662;49.310;8.134;2024-01-30T14:15:14;9.53;;;6.87;;
3299;SDS011;1662;49.310;8.134;2024-01-30T14:17:42;6.10;;;5.60;;
3299;SDS011;1662;49.310;8.134;2024-01-30T14:20:08;7.20;;;6.30;;
3299;SDS011;1662;49.310;8.134;2024-01-30T14:22:35;6.23;;;5.73;;
3299;SDS011;1662;49.310;8.134;2024-01-30T14:25:01;8.20;;;7.40;;
3299;SDS011;1662;49.310;8.134;2024-01-30T14:27:29;9.70;;;8.80;;
3299;SDS011;1662;49.310;8.134;2024-01-30T14:29:55;9.53;;;8.63;;
3299;SDS011;1662;49.310;8.134;2024-01-30T14:32:21;8.87;;;8.10;;
3299;SDS011;1662;49.310;8.134;2024-01-30T14:34:48;12.07;;;9.03;;
3299;SDS011;1662;49.310;8.134;2024-01-30T14:37:16;9.53;;;8.63;;
3299;SDS011;1662;49.310;8.134;2024-01-30T14:39:42;9.63;;;8.60;;
3299;SDS011;1662;49.310;8.134;2024-01-30T14:42:08;11.23;;;9.07;;
3299;SDS011;1662;49.310;8.134;2024-01-30T14:44:33;9.13;;;8.20;;
3299;SDS011;1662;49.310;8.134;2024-01-30T14:46:59;9.67;;;8.77;;
3299;SDS011;1662;49.310;8.134;2024-01-30T14:49:25;11.57;;;9.87;;